createdAt,value
2019-01-24T00:01:49.295Z,70.33
2019-01-24T00:04:16.848Z,68.63
2019-01-24T00:06:43.715Z,65.67
2019-01-24T00:09:10.090Z,70.00
2019-01-24T00:11:36.377Z,61.23
2019-01-24T00:14:02.569Z,71.43
2019-01-24T00:16:28.753Z,68.60
2019-01-24T00:18:54.934Z,64.37
2019-01-24T00:21:21.110Z,67.87
2019-01-24T00:23:47.294Z,73.57
2019-01-24T00:26:13.465Z,71.50
2019-01-24T00:28:39.642Z,66.63
2019-01-24T00:31:05.814Z,70.20
2019-01-24T00:33:32.000Z,74.83
2019-01-24T00:35:58.188Z,74.93
2019-01-24T00:38:24.380Z,68.07
2019-01-24T00:40:50.550Z,80.00
2019-01-24T00:43:16.747Z,68.10
2019-01-24T00:45:42.933Z,79.80
2019-01-24T00:48:09.131Z,73.73
2019-01-24T00:50:35.310Z,77.13
2019-01-24T00:53:01.500Z,73.53
2019-01-24T00:55:27.683Z,73.93
2019-01-24T00:57:53.871Z,76.70
2019-01-24T01:00:24.269Z,77.27
2019-01-24T01:02:50.663Z,71.17
2019-01-24T01:05:17.347Z,85.20
2019-01-24T01:07:43.835Z,76.20
2019-01-24T01:10:11.719Z,76.90
2019-01-24T01:12:38.224Z,75.30
2019-01-24T01:15:09.811Z,83.00
2019-01-24T01:17:36.005Z,79.03
2019-01-24T01:20:07.294Z,77.50
2019-01-24T01:22:33.485Z,73.83
2019-01-24T01:24:59.682Z,75.27
2019-01-24T01:27:25.867Z,78.33
2019-01-24T01:29:52.062Z,75.40
2019-01-24T01:32:18.234Z,79.00
2019-01-24T01:34:44.519Z,80.13
2019-01-24T01:37:10.692Z,83.57
2019-01-24T01:39:36.886Z,72.63
2019-01-24T01:42:03.163Z,70.07
2019-01-24T01:44:29.363Z,67.17
2019-01-24T01:46:55.539Z,77.63
2019-01-24T01:49:21.739Z,81.43
2019-01-24T01:51:47.914Z,83.07
2019-01-24T01:54:14.107Z,87.40
2019-01-24T01:56:40.306Z,78.50
2019-01-24T01:59:06.503Z,75.33
2019-01-24T02:01:32.673Z,75.67
2019-01-24T02:03:59.005Z,77.97
2019-01-24T02:06:25.191Z,73.77
2019-01-24T02:08:51.389Z,88.80
2019-01-24T02:11:17.572Z,78.13
2019-01-24T02:13:43.867Z,72.87
2019-01-24T02:16:10.047Z,81.90
2019-01-24T02:18:36.220Z,89.50
2019-01-24T02:21:02.815Z,85.77
2019-01-24T02:23:29.009Z,95.97
2019-01-24T02:25:55.199Z,89.80
2019-01-24T02:28:21.381Z,92.70
2019-01-24T02:30:47.573Z,95.00
2019-01-24T02:33:13.753Z,89.50
2019-01-24T02:35:39.945Z,98.23
2019-01-24T02:38:06.114Z,100.20
2019-01-24T02:40:32.303Z,101.57
2019-01-24T02:42:58.475Z,87.77
2019-01-24T02:45:24.674Z,88.73
2019-01-24T02:47:51.248Z,88.50
2019-01-24T02:50:20.646Z,86.87
2019-01-24T02:52:47.125Z,80.27
2019-01-24T02:55:14.923Z,80.33
2019-01-24T02:57:42.102Z,83.07
2019-01-24T03:00:18.235Z,86.27
2019-01-24T03:02:44.435Z,88.83
2019-01-24T03:05:14.838Z,94.27
2019-01-24T03:07:41.111Z,96.63
2019-01-24T03:10:11.508Z,91.40
2019-01-24T03:12:37.695Z,78.13
2019-01-24T03:15:08.896Z,87.03
2019-01-24T03:17:35.075Z,87.80
2019-01-24T03:20:01.459Z,75.97
2019-01-24T03:22:27.644Z,91.23
2019-01-24T03:24:53.838Z,86.33
2019-01-24T03:27:20.013Z,87.77
2019-01-24T03:29:46.203Z,86.30
2019-01-24T03:32:12.381Z,72.73
2019-01-24T03:34:38.559Z,80.77
2019-01-24T03:37:04.744Z,85.57
2019-01-24T03:39:30.927Z,80.90
2019-01-24T03:41:57.103Z,78.63
2019-01-24T03:44:23.287Z,80.17
2019-01-24T03:46:49.479Z,93.40
2019-01-24T03:49:15.657Z,88.50
2019-01-24T03:51:42.455Z,90.37
2019-01-24T03:54:08.664Z,80.13
2019-01-24T03:56:35.046Z,78.60
2019-01-24T03:59:01.311Z,98.50
2019-01-24T04:01:27.515Z,94.10
2019-01-24T04:03:53.698Z,94.17
2019-01-24T04:06:19.893Z,93.23
2019-01-24T04:08:46.061Z,90.30
2019-01-24T04:11:12.244Z,89.93
2019-01-24T04:13:38.421Z,89.37
2019-01-24T04:16:04.612Z,99.93
2019-01-24T04:18:30.779Z,90.67
2019-01-24T04:20:56.971Z,88.53
2019-01-24T04:23:23.142Z,86.63
2019-01-24T04:25:49.328Z,91.90
2019-01-24T04:28:15.522Z,87.73
2019-01-24T04:30:41.956Z,91.70
2019-01-24T04:33:08.131Z,93.17
2019-01-24T04:35:34.326Z,90.03
2019-01-24T04:38:00.502Z,94.57
2019-01-24T04:40:26.696Z,85.77
2019-01-24T04:42:52.880Z,84.40
2019-01-24T04:45:19.163Z,86.87
2019-01-24T04:47:45.843Z,93.93
2019-01-24T04:50:14.531Z,99.23
2019-01-24T04:52:40.916Z,94.23
2019-01-24T04:55:10.615Z,94.70
2019-01-24T04:57:36.796Z,94.60
2019-01-24T05:00:11.639Z,95.07
2019-01-24T05:02:37.833Z,89.93
2019-01-24T05:05:04.430Z,98.47
2019-01-24T05:07:30.603Z,100.23
2019-01-24T05:09:56.793Z,93.57
2019-01-24T05:12:22.972Z,84.33
2019-01-24T05:14:49.156Z,96.07
2019-01-24T05:17:15.338Z,93.50
2019-01-24T05:19:41.525Z,78.33
2019-01-24T05:22:07.722Z,87.90
2019-01-24T05:24:33.899Z,85.03
2019-01-24T05:27:00.091Z,86.70
2019-01-24T05:29:26.276Z,89.17
2019-01-24T05:31:52.462Z,84.13
2019-01-24T05:34:18.637Z,92.73
2019-01-24T05:36:44.816Z,89.53
2019-01-24T05:39:10.990Z,99.63
2019-01-24T05:41:37.190Z,96.63
2019-01-24T05:44:03.356Z,89.80
2019-01-24T05:46:29.539Z,85.87
2019-01-24T05:48:55.729Z,89.53
2019-01-24T05:51:21.913Z,86.23
2019-01-24T05:53:48.085Z,82.20
2019-01-24T05:56:14.285Z,99.47
2019-01-24T05:58:40.468Z,90.63
2019-01-24T06:01:07.566Z,82.57
2019-01-24T06:03:33.755Z,88.27
2019-01-24T06:05:59.950Z,88.53
2019-01-24T06:08:26.127Z,87.90
2019-01-24T06:10:52.328Z,93.10
2019-01-24T06:13:18.513Z,96.97
2019-01-24T06:15:44.721Z,97.80
2019-01-24T06:18:10.887Z,100.20
2019-01-24T06:20:37.129Z,98.47
2019-01-24T06:23:03.319Z,90.67
2019-01-24T06:25:29.501Z,94.37
2019-01-24T06:28:11.037Z,96.97
2019-01-24T06:30:37.236Z,99.63
2019-01-24T06:33:03.423Z,94.10
2019-01-24T06:35:29.607Z,92.40
2019-01-24T06:37:55.787Z,92.40
2019-01-24T06:40:22.073Z,97.27
2019-01-24T06:42:48.268Z,97.90
2019-01-24T06:45:18.149Z,97.03
2019-01-24T06:47:44.356Z,91.87
2019-01-24T06:50:13.437Z,99.13
2019-01-24T06:52:39.721Z,91.50
2019-01-24T06:55:10.920Z,92.87
2019-01-24T06:57:37.460Z,91.10
2019-01-24T07:00:16.171Z,91.77
2019-01-24T07:02:42.577Z,92.60
2019-01-24T07:05:09.163Z,99.37
2019-01-24T07:07:35.351Z,95.93
2019-01-24T07:10:04.938Z,101.50
2019-01-24T07:12:31.135Z,91.93
2019-01-24T07:14:57.578Z,88.00
2019-01-24T07:17:23.779Z,101.10
2019-01-24T07:19:49.958Z,105.07
2019-01-24T07:22:16.432Z,91.00
2019-01-24T07:24:42.614Z,97.47
2019-01-24T07:27:08.804Z,80.63
2019-01-24T07:29:35.332Z,60.93
2019-01-24T07:32:01.522Z,74.80
2019-01-24T07:34:27.697Z,94.23
2019-01-24T07:36:53.898Z,93.20
2019-01-24T07:39:20.083Z,96.57
2019-01-24T07:41:46.279Z,99.07
2019-01-24T07:44:12.465Z,103.13
2019-01-24T07:46:38.658Z,93.17
2019-01-24T07:49:04.841Z,100.47
2019-01-24T07:51:31.031Z,102.93
2019-01-24T07:53:57.214Z,103.77
2019-01-24T07:56:23.405Z,87.63
2019-01-24T07:58:49.587Z,90.63
2019-01-24T08:01:15.772Z,92.00
2019-01-24T08:03:41.973Z,105.07
2019-01-24T08:06:09.265Z,88.63
2019-01-24T08:08:35.658Z,93.00
2019-01-24T08:11:01.839Z,93.40
2019-01-24T08:13:28.034Z,94.07
2019-01-24T08:15:54.215Z,97.57
2019-01-24T08:18:20.411Z,96.13
2019-01-24T08:20:46.595Z,92.03
2019-01-24T08:23:12.787Z,91.67
2019-01-24T08:25:38.987Z,89.60
2019-01-24T08:28:05.185Z,93.57
2019-01-24T08:30:32.281Z,98.70
2019-01-24T08:32:58.473Z,97.33
2019-01-24T08:35:24.653Z,87.73
2019-01-24T08:37:51.155Z,89.53
2019-01-24T08:40:20.839Z,101.63
2019-01-24T08:42:47.529Z,111.23
2019-01-24T08:45:14.551Z,88.40
2019-01-24T08:47:40.955Z,101.33
2019-01-24T08:50:14.447Z,92.57
2019-01-24T08:52:40.637Z,100.63
2019-01-24T08:55:23.995Z,89.70
2019-01-24T08:57:50.194Z,93.63
2019-01-24T09:00:19.490Z,104.00
2019-01-24T09:02:45.895Z,107.03
2019-01-24T09:05:12.579Z,91.77
2019-01-24T09:07:39.080Z,90.90
2019-01-24T09:10:10.763Z,78.03
2019-01-24T09:12:36.975Z,85.10
2019-01-24T09:15:08.574Z,75.53
2019-01-24T09:17:34.763Z,85.33
2019-01-24T09:20:00.942Z,83.83
2019-01-24T09:22:27.401Z,80.20
2019-01-24T09:24:53.584Z,72.13
2019-01-24T09:27:19.798Z,83.60
2019-01-24T09:29:45.966Z,72.70
2019-01-24T09:32:12.164Z,65.63
2019-01-24T09:34:38.348Z,46.90
2019-01-24T09:37:04.535Z,55.70
2019-01-24T09:39:30.722Z,71.50
2019-01-24T09:41:57.158Z,55.50
2019-01-24T09:44:23.341Z,60.33
2019-01-24T09:46:49.529Z,65.73
2019-01-24T09:49:15.711Z,59.37
2019-01-24T09:51:41.899Z,53.50
2019-01-24T09:54:08.140Z,38.20
2019-01-24T09:56:35.142Z,37.27
2019-01-24T09:59:01.334Z,36.07
2019-01-24T10:01:27.511Z,31.87
2019-01-24T10:03:53.712Z,33.67
2019-01-24T10:06:19.891Z,32.30
2019-01-24T10:08:46.358Z,32.80
2019-01-24T10:11:12.549Z,32.13
2019-01-24T10:13:38.739Z,36.93
2019-01-24T10:16:05.014Z,36.50
2019-01-24T10:18:31.231Z,33.20
2019-01-24T10:20:57.803Z,30.87
2019-01-24T10:23:52.077Z,37.47
2019-01-24T10:26:18.272Z,33.60
2019-01-24T10:28:44.459Z,34.70
2019-01-24T10:31:10.644Z,37.80
2019-01-24T10:33:36.847Z,36.33
2019-01-24T10:36:03.141Z,34.53
2019-01-24T10:38:41.399Z,32.53
2019-01-24T10:41:07.586Z,33.47
2019-01-24T10:43:33.775Z,35.17
2019-01-24T10:45:59.953Z,31.57
2019-01-24T10:48:26.147Z,33.20
2019-01-24T10:50:52.335Z,31.53
2019-01-24T10:53:18.528Z,31.77
2019-01-24T10:55:44.710Z,34.70
2019-01-24T10:58:10.908Z,34.37
2019-01-24T11:00:38.700Z,35.87
2019-01-24T11:03:08.512Z,37.63
2019-01-24T11:05:34.687Z,33.33
2019-01-24T11:08:01.082Z,36.60
2019-01-24T11:10:27.355Z,37.27
2019-01-24T11:12:53.563Z,35.63
2019-01-24T11:15:22.565Z,37.23
2019-01-24T11:17:48.746Z,39.37
2019-01-24T11:20:17.945Z,36.20
2019-01-24T11:22:44.323Z,35.83
2019-01-24T11:25:16.890Z,36.70
2019-01-24T11:27:43.164Z,37.43
2019-01-24T11:30:20.151Z,36.53
2019-01-24T11:32:46.587Z,35.13
2019-01-24T11:35:19.734Z,36.17
2019-01-24T11:37:45.913Z,36.90
2019-01-24T11:40:16.140Z,34.70
2019-01-24T11:42:42.621Z,38.50
2019-01-24T11:45:12.126Z,38.60
2019-01-24T11:47:38.314Z,39.57
2019-01-24T11:50:16.841Z,39.60
2019-01-24T11:52:43.526Z,36.70
2019-01-24T11:55:13.317Z,38.03
2019-01-24T11:57:39.507Z,38.73
2019-01-24T12:00:19.831Z,39.80
2019-01-24T12:02:46.026Z,40.17
2019-01-24T12:05:12.531Z,41.13
2019-01-24T12:07:38.717Z,38.33
2019-01-24T12:10:18.258Z,35.77
2019-01-24T12:12:44.434Z,41.60
2019-01-24T12:15:15.253Z,36.10
2019-01-24T12:17:43.341Z,42.30
2019-01-24T12:20:14.335Z,35.37
2019-01-24T12:22:40.784Z,42.57
2019-01-24T12:25:09.175Z,46.77
2019-01-24T12:27:35.346Z,39.80
2019-01-24T12:30:08.517Z,35.70
2019-01-24T12:32:34.692Z,39.87
2019-01-24T12:35:00.904Z,36.43
2019-01-24T12:37:27.090Z,38.17
2019-01-24T12:39:53.275Z,36.53
2019-01-24T12:42:19.463Z,36.57
2019-01-24T12:44:45.652Z,37.23
2019-01-24T12:47:11.834Z,35.67
2019-01-24T12:49:38.020Z,33.43
2019-01-24T12:52:04.204Z,41.73
2019-01-24T12:54:30.403Z,36.10
2019-01-24T12:56:56.590Z,40.37
2019-01-24T12:59:22.779Z,41.53
2019-01-24T13:01:48.967Z,34.57
2019-01-24T13:04:15.167Z,30.80
2019-01-24T13:06:41.356Z,32.53
2019-01-24T13:09:07.546Z,33.83
2019-01-24T13:11:33.734Z,35.50
2019-01-24T13:13:59.936Z,35.97
2019-01-24T13:16:26.115Z,33.60
2019-01-24T13:18:52.303Z,34.97
2019-01-24T13:21:18.515Z,32.50
2019-01-24T13:23:44.704Z,29.70
2019-01-24T13:26:10.890Z,33.73
2019-01-24T13:28:37.073Z,30.37
2019-01-24T13:31:03.263Z,32.23
2019-01-24T13:33:29.434Z,33.70
2019-01-24T13:35:55.620Z,34.50
2019-01-24T13:38:21.810Z,35.83
2019-01-24T13:40:48.013Z,34.77
2019-01-24T13:43:14.204Z,35.97
2019-01-24T13:45:40.394Z,31.33
2019-01-24T13:48:06.871Z,33.07
2019-01-24T13:50:33.071Z,37.70
2019-01-24T13:52:59.466Z,32.30
2019-01-24T13:55:25.655Z,34.40
2019-01-24T13:57:51.840Z,33.07
2019-01-24T14:00:27.555Z,32.10
2019-01-24T14:02:59.471Z,31.37
2019-01-24T14:05:25.656Z,30.70
2019-01-24T14:07:51.838Z,33.63
2019-01-24T14:10:18.231Z,37.67
2019-01-24T14:12:44.406Z,33.00
2019-01-24T14:15:17.377Z,40.20
2019-01-24T14:17:43.751Z,34.00
2019-01-24T14:20:16.655Z,35.17
2019-01-24T14:22:42.834Z,35.83
2019-01-24T14:25:13.536Z,37.33
2019-01-24T14:27:41.015Z,34.83
2019-01-24T14:30:26.859Z,39.70
2019-01-24T14:32:53.043Z,42.53
2019-01-24T14:35:20.146Z,35.57
2019-01-24T14:37:46.630Z,43.93
2019-01-24T14:40:13.985Z,40.70
2019-01-24T14:42:40.219Z,46.80
2019-01-24T14:45:11.885Z,44.63
2019-01-24T14:47:40.084Z,37.93
2019-01-24T14:50:11.783Z,42.53
2019-01-24T14:52:38.335Z,40.70
2019-01-24T14:55:09.491Z,38.23
2019-01-24T14:57:35.677Z,38.43
2019-01-24T15:00:07.777Z,34.50
2019-01-24T15:02:33.961Z,39.17
2019-01-24T15:05:00.239Z,39.30
2019-01-24T15:07:26.437Z,36.57
2019-01-24T15:09:52.619Z,36.83
2019-01-24T15:12:18.810Z,42.20
2019-01-24T15:14:45.052Z,38.20
2019-01-24T15:17:11.252Z,41.03
2019-01-24T15:19:37.439Z,38.90
2019-01-24T15:22:03.627Z,37.27
2019-01-24T15:24:29.803Z,38.33
2019-01-24T15:26:55.982Z,38.80
2019-01-24T15:29:22.171Z,36.07
2019-01-24T15:31:48.366Z,35.57
2019-01-24T15:34:14.542Z,38.33
2019-01-24T15:36:40.736Z,36.03
2019-01-24T15:39:07.012Z,37.90
2019-01-24T15:41:33.206Z,39.20
2019-01-24T15:43:59.375Z,38.57
2019-01-24T15:46:25.574Z,38.00
2019-01-24T15:48:51.803Z,38.17
2019-01-24T15:51:18.203Z,36.20
2019-01-24T15:53:44.374Z,34.93
2019-01-24T15:56:10.568Z,40.67
2019-01-24T15:58:36.743Z,38.47
2019-01-24T16:01:03.439Z,35.00
2019-01-24T16:03:29.623Z,37.60
2019-01-24T16:05:56.115Z,40.17
2019-01-24T16:08:22.298Z,39.33
2019-01-24T16:10:48.711Z,37.90
2019-01-24T16:13:14.886Z,35.27
2019-01-24T16:15:41.075Z,34.37
2019-01-24T16:18:07.765Z,36.20
2019-01-24T16:20:34.133Z,38.27
2019-01-24T16:23:00.259Z,51.67
2019-01-24T16:25:50.193Z,36.63
2019-01-24T16:28:16.472Z,37.23
2019-01-24T16:30:56.696Z,33.67
2019-01-24T16:33:22.968Z,39.17
2019-01-24T16:35:49.147Z,39.43
2019-01-24T16:38:15.325Z,37.00
2019-01-24T16:40:41.516Z,37.97
2019-01-24T16:43:07.698Z,38.83
2019-01-24T16:45:33.883Z,46.63
2019-01-24T16:48:00.179Z,37.33
2019-01-24T16:50:26.966Z,39.10
2019-01-24T16:52:53.148Z,42.97
2019-01-24T16:55:19.633Z,38.67
2019-01-24T16:57:48.031Z,35.20
2019-01-24T17:00:22.538Z,36.93
2019-01-24T17:02:50.775Z,37.33
2019-01-24T17:05:17.467Z,37.73
2019-01-24T17:07:43.743Z,44.67
2019-01-24T17:10:28.480Z,38.83
2019-01-24T17:12:54.842Z,37.37
2019-01-24T17:15:21.635Z,41.50
2019-01-24T17:17:55.596Z,42.77
2019-01-24T17:20:27.419Z,36.83
2019-01-24T17:22:59.522Z,35.90
2019-01-24T17:25:29.408Z,38.73
2019-01-24T17:27:55.802Z,41.07
2019-01-24T17:30:32.566Z,33.50
2019-01-24T17:33:00.188Z,41.40
2019-01-24T17:35:26.678Z,35.20
2019-01-24T17:37:53.159Z,33.07
2019-01-24T17:40:26.309Z,32.17
2019-01-24T17:42:52.606Z,36.80
2019-01-24T17:45:18.898Z,36.83
2019-01-24T17:47:45.098Z,34.53
2019-01-24T17:50:14.085Z,36.07
2019-01-24T17:52:40.268Z,38.73
2019-01-24T17:55:23.588Z,37.40
2019-01-24T17:57:50.126Z,36.93
2019-01-24T18:00:20.218Z,35.53
2019-01-24T18:02:46.415Z,35.80
2019-01-24T18:05:13.070Z,40.90
2019-01-24T18:07:39.295Z,38.47
2019-01-24T18:10:26.860Z,40.33
2019-01-24T18:12:53.059Z,37.30
2019-01-24T18:15:25.511Z,34.93
2019-01-24T18:17:51.709Z,40.83
2019-01-24T18:20:22.305Z,31.30
